Aérodrome :
LOGIN :

S'inscrire | Disclaimer

   EN    FR    IT 

 










Légende :    VFR   VFR Marginal   IFR   IFR Intensif   IFR Très Intensif
Visi : 
Plafond : 
>= 8 km
>= 3000ft
5 à 8 km
1000 à 3000 ft
1500m à 5 km
500 à 1000 ft
800 à 1500m
200 à 500 ft
< 800m
< 200 ft
Symboles :   Orages  Brouillard  Fortes neiges  Fortes précipitations  Vent > 20 kt
SIGMETs :   Divers  Orages  Givrage  Turbulence  Onde Orograph.  Cendres Volcan.







- Altitude de l'aérodrome : 870 ft
- Code IATA : ETZ
- Voir les cartes d'approche


LFJL - Metz Nancy Lorraine

DERNIER METAR :
  • 280300Z AUTO 23018KT 200V260 9999 BKN027 BKN032 OVC160 05/02 Q0996 NOSIG

METARs EXPIRÉS :
  • 280230Z AUTO 22016KT 9999 OVC025 05/03 Q0996 NOSIG
  • 280200Z AUTO 22016KT 9999 OVC024 05/03 Q0996 NOSIG
  • 280130Z AUTO 22017KT 9999 BKN024 OVC029 05/03 Q0996 NOSIG
  • 280100Z AUTO 23016KT 9999 BKN024 OVC030 05/03 Q0996 TEMPO 17010KT 4000 SHRA BKN013 FEW030CB
  • 280030Z AUTO 23021KT 9999 BKN026 BKN032 OVC098 05/03 Q0996 TEMPO 17010KT 4000 SHRA BKN013 FEW030CB

TAF TAF LFJL
Valide du 28 à 00h jusqu'au 01 à 00h UTC


272300Z 2800/2824 23010G20KT 9999 BKN025
TEMPO 2800/2802 20020G35KT -SHRA SCT030TCU
PROB30
TEMPO 2800/2802 4000 SHRA BKN013 FEW030CB
TEMPO 2802/2810 17010KT CAVOK
TEMPO 2812/2820 25020G30KT 4000 SHRA BKN015 SCT025CB
PROB30
TEMPO 2814/2818 2000 TSRAGS
Pas de NOTAMs connus pour ce terrain.
2 SIGMETs publiés pour la FIR Reims (LFEE) :
 
Orages noyés dans la masse
LFEE SIGMET 7 VALID 272345/280300 LFPW
LFEE REIMS FIR/UIR EMBD TS OBS SE OF LINE N4630 E00445 - N4915 E00700 TOP FL300 STNR NC=
Turbulence forte
LFEE SIGMET 6 VALID 280000/280400 LFPW
LFEE REIMS FIR/UIR SEV TURB FCST E OF LINE N4915 E00700 - N4630 E00515 SFC/FL120 STNR NC=



MET'MAP, la Météo Aéronautique d'un coup d'oeil ! - Copyright ORBIFLY Décembre 2007 - Disclaimer

ORBIFLY MET'MAP TEAM :

Programmation & Développement : Alexandra Zaïnal
Conception & Développement : Baudouin d'Aumeries
Co-Programmation & Développement : Marc-Olivier Méhu
Soutien technique & logistique : Manuel Goepfert

Contact : metmap@orbifly.com




SOURCES & CREDITS :

   NOAA